createdAt,value
2018-06-01T00:01:59.865Z,92.71
2018-06-01T00:04:25.804Z,93.46
2018-06-01T00:06:53.685Z,93.80
2018-06-01T00:09:19.603Z,93.59
2018-06-01T00:11:47.513Z,93.99
2018-06-01T00:14:13.437Z,94.65
2018-06-01T00:16:42.332Z,94.78
2018-06-01T00:19:08.264Z,95.86
2018-06-01T00:21:34.239Z,95.47
2018-06-01T00:24:00.190Z,94.73
2018-06-01T00:26:26.165Z,94.50
2018-06-01T00:28:53.974Z,94.70
2018-06-01T00:31:19.917Z,95.14
2018-06-01T00:33:49.213Z,94.21
2018-06-01T00:36:15.172Z,95.05
2018-06-01T00:38:44.945Z,95.67
2018-06-01T00:41:10.857Z,95.96
2018-06-01T00:43:38.308Z,95.93
2018-06-01T00:46:04.323Z,95.36
2018-06-01T00:48:34.335Z,95.29
2018-06-01T00:51:00.293Z,95.30
2018-06-01T00:53:28.244Z,95.50
2018-06-01T00:55:54.224Z,95.54
2018-06-01T00:58:20.172Z,94.98
2018-06-01T01:00:46.110Z,94.66
2018-06-01T01:03:12.080Z,93.33
2018-06-01T01:05:40.015Z,94.35
2018-06-01T01:08:05.938Z,94.34
2018-06-01T01:10:35.052Z,94.98
2018-06-01T01:13:00.993Z,95.72
2018-06-01T01:15:28.668Z,96.10
2018-06-01T01:17:54.630Z,96.06
2018-06-01T01:20:23.572Z,96.84
2018-06-01T01:22:49.527Z,95.61
2018-06-01T01:25:19.315Z,94.77
2018-06-01T01:27:45.232Z,94.11
2018-06-01T01:30:13.013Z,93.71
2018-06-01T01:32:38.955Z,93.48
2018-06-01T01:35:04.885Z,93.29
2018-06-01T01:37:31.836Z,92.64
2018-06-01T01:39:57.868Z,93.31
2018-06-01T01:42:24.792Z,92.62
2018-06-01T01:44:50.764Z,92.05
2018-06-01T01:47:19.966Z,92.40
2018-06-01T01:49:53.220Z,91.63
2018-06-01T01:52:19.179Z,92.80
2018-06-01T01:54:45.077Z,92.44
2018-06-01T01:57:11.086Z,92.59
2018-06-01T01:59:36.978Z,92.17
2018-06-01T02:02:03.780Z,92.17
2018-06-01T02:04:29.742Z,92.15
2018-06-01T02:06:58.954Z,93.24
2018-06-01T02:09:24.847Z,91.53
2018-06-01T02:11:50.839Z,91.86
2018-06-01T02:14:16.736Z,91.72
2018-06-01T02:16:42.670Z,92.01
2018-06-01T02:19:10.260Z,92.25
2018-06-01T02:21:36.190Z,91.34
2018-06-01T02:24:05.312Z,91.23
2018-06-01T02:26:31.256Z,92.06
2018-06-01T02:29:01.086Z,92.39
2018-06-01T02:31:27.059Z,92.18
2018-06-01T02:33:54.867Z,92.40
2018-06-01T02:36:20.759Z,91.48
2018-06-01T02:38:49.926Z,91.32
2018-06-01T02:41:15.854Z,91.61
2018-06-01T02:43:43.419Z,91.73
2018-06-01T02:46:09.373Z,91.29
2018-06-01T02:48:35.324Z,91.32
2018-06-01T02:51:01.216Z,90.86
2018-06-01T02:53:27.132Z,90.53
2018-06-01T02:55:56.105Z,89.97
2018-06-01T02:58:22.013Z,89.03
2018-06-01T03:00:49.826Z,88.52
2018-06-01T03:03:15.801Z,87.87
2018-06-01T03:05:44.628Z,87.58
2018-06-01T03:08:10.585Z,89.16
2018-06-01T03:10:39.529Z,89.58
2018-06-01T03:13:05.500Z,89.49
2018-06-01T03:15:35.275Z,88.88
2018-06-01T03:18:01.223Z,88.23
2018-06-01T03:20:30.528Z,87.28
2018-06-01T03:22:56.479Z,86.11
2018-06-01T03:25:22.411Z,85.44
2018-06-01T03:27:48.382Z,86.01
2018-06-01T03:30:14.310Z,85.91
2018-06-01T03:32:41.274Z,85.45
2018-06-01T03:35:07.237Z,85.98
2018-06-01T03:37:36.747Z,85.12
2018-06-01T03:40:02.719Z,86.23
2018-06-01T03:42:29.995Z,86.31
2018-06-01T03:44:55.903Z,86.58
2018-06-01T03:47:25.393Z,85.91
2018-06-01T03:49:51.299Z,86.26
2018-06-01T03:52:20.973Z,86.49
2018-06-01T03:54:46.897Z,85.78
2018-06-01T03:57:14.700Z,85.74
2018-06-01T03:59:40.646Z,86.43
2018-06-01T04:02:06.519Z,87.00
2018-06-01T04:04:32.413Z,87.57
2018-06-01T04:06:58.367Z,88.85
2018-06-01T04:09:27.595Z,89.61
2018-06-01T04:11:53.481Z,89.60
2018-06-01T04:14:21.109Z,89.87
2018-06-01T04:16:47.079Z,88.99
2018-06-01T04:19:16.812Z,88.86
2018-06-01T04:21:42.741Z,89.13
2018-06-01T04:24:10.433Z,88.88
2018-06-01T04:26:36.364Z,88.79
2018-06-01T04:29:06.237Z,88.07
2018-06-01T04:31:32.198Z,87.29
2018-06-01T04:33:59.881Z,87.59
2018-06-01T04:36:25.841Z,86.97
2018-06-01T04:38:51.779Z,86.32
2018-06-01T04:41:17.683Z,86.70
2018-06-01T04:43:43.637Z,86.47
2018-06-01T04:46:10.987Z,86.09
2018-06-01T04:48:36.922Z,86.28
2018-06-01T04:51:06.499Z,85.85
2018-06-01T04:53:32.438Z,86.29
2018-06-01T04:56:01.680Z,87.03
2018-06-01T04:58:27.527Z,87.23
2018-06-01T05:00:55.222Z,86.00
2018-06-01T05:03:21.125Z,86.38
2018-06-01T05:05:50.146Z,87.29
2018-06-01T05:08:16.043Z,86.81
2018-06-01T05:10:45.099Z,86.12
2018-06-01T05:13:11.067Z,85.69
2018-06-01T05:15:36.968Z,85.25
2018-06-01T05:18:02.913Z,85.33
2018-06-01T05:20:28.835Z,85.14
2018-06-01T05:22:57.948Z,84.87
2018-06-01T05:25:23.879Z,83.70
2018-06-01T05:27:53.030Z,83.11
2018-06-01T05:30:19.010Z,85.35
2018-06-01T05:32:45.832Z,83.32
2018-06-01T05:35:11.798Z,83.91
2018-06-01T05:37:40.757Z,84.23
2018-06-01T05:40:06.700Z,83.07
2018-06-01T05:42:35.495Z,83.38
2018-06-01T05:45:01.434Z,81.99
2018-06-01T05:47:30.387Z,81.86
2018-06-01T05:49:56.355Z,80.90
2018-06-01T05:52:22.321Z,80.77
2018-06-01T05:54:48.283Z,79.03
2018-06-01T05:57:14.193Z,77.83
2018-06-01T05:59:43.699Z,78.65
2018-06-01T06:02:09.615Z,79.08
2018-06-01T06:04:36.573Z,78.73
2018-06-01T06:07:02.519Z,77.03
2018-06-01T06:09:32.187Z,78.76
2018-06-01T06:11:58.105Z,76.97
2018-06-01T06:14:25.900Z,78.52
2018-06-01T06:16:51.854Z,77.96
2018-06-01T06:19:20.732Z,78.53
2018-06-01T06:21:46.707Z,76.40
2018-06-01T06:24:16.285Z,76.56
2018-06-01T06:26:42.279Z,77.48
2018-06-01T06:29:08.179Z,79.37
2018-06-01T06:31:34.143Z,79.58
2018-06-01T06:34:00.040Z,79.14
2018-06-01T06:36:27.738Z,79.88
2018-06-01T06:38:53.624Z,78.26
2018-06-01T06:41:22.779Z,75.64
2018-06-01T06:43:48.689Z,76.54
2018-06-01T06:46:16.645Z,72.92
2018-06-01T06:48:42.550Z,75.03
2018-06-01T06:51:12.466Z,75.04
2018-06-01T06:53:38.395Z,71.38
2018-06-01T06:56:06.100Z,73.83
2018-06-01T06:58:32.009Z,71.85
2018-06-01T07:01:01.405Z,73.71
2018-06-01T07:03:27.309Z,74.86
2018-06-01T07:05:53.257Z,72.29
2018-06-01T07:08:19.186Z,69.84
2018-06-01T08:32:49.548Z,59.28
2018-06-01T08:35:15.448Z,59.45
2018-06-01T08:37:45.017Z,59.55
2018-06-01T08:40:10.937Z,54.79
2018-06-01T08:42:38.281Z,55.54
2018-06-01T08:45:04.257Z,54.10
2018-06-01T08:47:34.126Z,56.81
2018-06-01T08:50:00.088Z,57.29
2018-06-01T08:52:27.753Z,58.49
2018-06-01T08:54:53.651Z,56.20
2018-06-01T08:57:23.080Z,57.37
2018-06-01T08:59:49.065Z,55.98
2018-06-01T09:02:17.600Z,53.13
2018-06-01T09:04:43.556Z,53.00
2018-06-01T09:07:11.920Z,51.96
2018-06-01T09:09:37.855Z,51.52
2018-06-01T09:12:06.850Z,52.99
2018-06-01T09:14:32.784Z,52.39
2018-06-01T09:16:58.757Z,53.06
2018-06-01T09:19:24.678Z,53.21
2018-06-01T09:21:50.621Z,51.14
2018-06-01T09:24:18.417Z,53.64
2018-06-01T09:26:44.316Z,53.70
2018-06-01T09:29:13.614Z,54.50
2018-06-01T09:31:39.550Z,53.15
2018-06-01T09:34:08.547Z,52.00
2018-06-01T09:36:34.503Z,52.36
2018-06-01T09:39:04.623Z,52.83
2018-06-01T09:41:30.557Z,50.99
2018-06-01T09:43:57.793Z,51.58
2018-06-01T09:46:23.690Z,50.58
2018-06-01T09:48:53.117Z,50.33
2018-06-01T09:51:19.082Z,47.95
2018-06-01T09:53:45.020Z,49.08
2018-06-01T09:56:10.971Z,48.11
2018-06-01T09:58:36.923Z,49.55
2018-06-01T10:01:09.633Z,50.10
2018-06-01T10:03:35.595Z,49.02
2018-06-01T10:06:01.533Z,46.89
2018-06-01T10:08:27.476Z,48.09
2018-06-01T10:10:53.445Z,49.47
2018-06-01T10:13:19.361Z,48.58
2018-06-01T10:15:48.034Z,49.19
2018-06-01T10:18:13.930Z,50.32
2018-06-01T10:20:43.156Z,51.66
2018-06-01T10:23:09.074Z,50.45
2018-06-01T10:25:38.947Z,52.20
2018-06-01T10:28:04.861Z,50.78
2018-06-01T10:30:30.845Z,50.87
2018-06-01T10:32:56.797Z,51.21
2018-06-01T10:35:22.773Z,49.62
2018-06-01T10:37:49.152Z,52.20
2018-06-01T10:40:15.106Z,51.14
2018-06-01T10:42:44.760Z,55.59
2018-06-01T10:45:10.669Z,55.06
2018-06-01T10:47:38.507Z,52.60
2018-06-01T10:50:04.465Z,50.43
2018-06-01T10:52:33.608Z,49.51
2018-06-01T10:54:59.547Z,49.43
2018-06-01T10:57:28.109Z,50.96
2018-06-01T10:59:54.040Z,45.71
2018-06-01T11:02:24.257Z,45.17
2018-06-01T11:04:50.204Z,46.83
2018-06-01T11:07:16.123Z,46.58
2018-06-01T11:09:42.105Z,48.21
2018-06-01T11:12:08.023Z,50.26
2018-06-01T11:14:34.202Z,48.32
2018-06-01T11:17:00.154Z,49.06
2018-06-01T11:19:29.955Z,47.54
2018-06-01T11:21:55.920Z,44.92
2018-06-01T11:24:25.467Z,45.01
2018-06-01T11:26:51.427Z,41.34
2018-06-01T11:29:18.920Z,42.80
2018-06-01T11:31:44.849Z,41.04
2018-06-01T11:34:13.003Z,42.69
2018-06-01T11:36:38.948Z,40.97
2018-06-01T11:39:07.871Z,44.00
2018-06-01T11:41:33.793Z,41.65
2018-06-01T11:43:59.736Z,44.06
2018-06-01T11:46:25.644Z,43.75
2018-06-01T11:48:51.581Z,41.82
2018-06-01T11:51:20.677Z,41.37
2018-06-01T11:53:46.608Z,42.05
2018-06-01T11:56:14.974Z,40.42
2018-06-01T11:58:40.901Z,41.90
2018-06-01T12:01:10.815Z,40.74
2018-06-01T12:03:36.745Z,39.67
2018-06-01T12:06:04.269Z,43.61
2018-06-01T12:08:30.194Z,45.94
2018-06-01T12:10:59.630Z,44.73
2018-06-01T12:13:25.614Z,44.50
2018-06-01T12:15:53.140Z,43.63
2018-06-01T12:18:19.125Z,38.00
2018-06-01T12:20:45.047Z,38.34
2018-06-01T12:23:11.018Z,39.55
2018-06-01T12:25:36.994Z,38.31
2018-06-01T12:28:05.984Z,38.93
2018-06-01T12:30:31.931Z,37.53
2018-06-01T12:33:01.404Z,38.22
2018-06-01T12:35:27.475Z,39.03
2018-06-01T12:37:54.893Z,40.39
2018-06-01T12:40:20.923Z,38.90
2018-06-01T12:42:50.782Z,39.43
2018-06-01T12:45:16.729Z,39.71
2018-06-01T12:47:43.931Z,40.48
2018-06-01T12:50:09.875Z,40.88
2018-06-01T12:52:39.799Z,43.05
2018-06-01T12:55:05.771Z,40.76
2018-06-01T12:57:31.800Z,42.72
2018-06-01T12:59:57.784Z,39.45
2018-06-01T13:02:23.743Z,41.82
2018-06-01T13:04:50.749Z,44.19
2018-06-01T13:07:16.731Z,44.08
2018-06-01T13:09:46.704Z,44.47
2018-06-01T13:12:12.624Z,45.79
2018-06-01T13:14:40.387Z,44.35
2018-06-01T13:17:06.319Z,41.23
2018-06-01T13:19:36.188Z,40.86
2018-06-01T13:22:02.141Z,39.56
2018-06-01T13:24:29.532Z,41.23
2018-06-01T13:26:55.488Z,42.89
2018-06-01T13:29:25.027Z,40.10
2018-06-01T13:31:51.010Z,40.35
2018-06-01T13:34:16.971Z,41.73
2018-06-01T13:36:42.929Z,42.78
2018-06-01T13:39:08.915Z,40.55
2018-06-01T13:41:35.827Z,42.93
2018-06-01T13:44:01.835Z,43.84
2018-06-01T13:46:30.301Z,44.45
2018-06-01T13:48:56.727Z,45.53
2018-06-01T13:51:26.027Z,47.34
2018-06-01T13:53:51.981Z,46.37
2018-06-01T13:56:21.569Z,46.46
2018-06-01T13:58:47.522Z,43.37
2018-06-01T14:01:14.490Z,41.11
2018-06-01T14:03:40.426Z,43.52
2018-06-01T14:06:09.462Z,41.15
2018-06-01T14:08:35.567Z,41.08
2018-06-01T14:11:02.808Z,40.98
2018-06-01T14:13:28.887Z,41.83
2018-06-01T14:15:54.816Z,42.44
2018-06-01T14:18:20.779Z,44.19
2018-06-01T14:20:46.703Z,43.31
2018-06-01T14:23:16.484Z,43.71
2018-06-01T14:25:42.441Z,44.72
2018-06-01T14:28:10.154Z,46.23
2018-06-01T14:30:36.071Z,46.07
2018-06-01T14:33:04.867Z,45.95
2018-06-01T14:35:30.779Z,44.05
2018-06-01T14:37:59.691Z,46.14
2018-06-01T14:40:27.132Z,47.60
2018-06-01T14:42:54.307Z,44.57
2018-06-01T14:45:20.221Z,46.16
2018-06-01T14:47:46.143Z,43.80
2018-06-01T14:50:12.055Z,44.79
2018-06-01T14:52:38.209Z,43.20
2018-06-01T14:55:07.280Z,41.77
2018-06-01T14:57:33.292Z,42.60
2018-06-01T15:00:02.606Z,43.20
2018-06-01T15:02:28.578Z,42.44
2018-06-01T15:04:56.236Z,40.61
2018-06-01T15:07:22.184Z,39.70
2018-06-01T15:09:52.026Z,40.84
2018-06-01T15:12:17.993Z,40.13
2018-06-01T15:14:45.945Z,40.13
2018-06-01T15:17:11.895Z,39.89
2018-06-01T15:19:41.448Z,42.92
2018-06-01T15:22:07.457Z,42.45
2018-06-01T15:24:33.399Z,42.85
2018-06-01T15:26:59.889Z,43.73
2018-06-01T15:29:25.983Z,44.49
2018-06-01T15:31:51.936Z,43.63
2018-06-01T15:34:17.904Z,44.66
2018-06-01T15:36:47.083Z,44.43
2018-06-01T15:39:13.023Z,44.59
2018-06-01T15:41:40.993Z,43.55
2018-06-01T15:44:06.873Z,42.43
2018-06-01T15:46:36.802Z,42.99
2018-06-01T15:49:02.771Z,42.33
2018-06-01T15:51:30.297Z,42.50
2018-06-01T15:53:56.246Z,43.04
2018-06-01T15:56:25.982Z,44.20
2018-06-01T15:58:51.942Z,43.35
2018-06-01T16:01:17.864Z,43.73
2018-06-01T16:03:43.802Z,44.42
2018-06-01T16:06:09.780Z,44.66
2018-06-01T16:08:36.852Z,45.65
2018-06-01T16:11:02.820Z,46.89
2018-06-01T16:13:32.468Z,47.36
2018-06-01T16:15:58.425Z,47.89
2018-06-01T16:18:26.172Z,47.82
2018-06-01T16:20:52.083Z,47.74
2018-06-01T16:23:21.230Z,48.49
2018-06-01T16:25:47.223Z,49.46
2018-06-01T16:28:15.674Z,48.87
2018-06-01T16:30:41.594Z,49.72
2018-06-01T16:33:11.440Z,49.90
2018-06-01T16:35:37.364Z,49.94
2018-06-01T16:38:03.364Z,50.29
2018-06-01T16:40:29.258Z,51.35
2018-06-01T16:42:55.253Z,50.70
2018-06-01T16:45:21.854Z,50.92
2018-06-01T16:47:47.918Z,51.32
2018-06-01T16:50:17.265Z,51.48
2018-06-01T16:52:43.247Z,52.61
2018-06-01T16:55:13.164Z,52.01
2018-06-01T16:57:39.123Z,53.26
2018-06-01T17:00:06.411Z,52.14
2018-06-01T17:02:32.328Z,52.75
2018-06-01T17:05:02.144Z,52.82
2018-06-01T17:07:28.143Z,53.72
2018-06-01T17:09:55.693Z,54.42
2018-06-01T17:12:21.864Z,54.35
2018-06-01T17:14:48.293Z,55.18
2018-06-01T17:17:14.547Z,55.32
2018-06-01T17:19:40.520Z,55.57
2018-06-01T17:22:09.559Z,56.10
2018-06-01T17:24:42.237Z,56.89
2018-06-01T17:27:09.073Z,57.33
2018-06-01T17:29:35.031Z,58.67
2018-06-01T17:32:00.973Z,58.77
2018-06-01T17:34:26.944Z,59.17
2018-06-01T17:36:52.897Z,59.71
2018-06-01T17:39:18.834Z,59.98
2018-06-01T17:41:48.661Z,60.37
2018-06-01T17:44:14.677Z,60.08
2018-06-01T17:46:41.424Z,60.51
2018-06-01T17:49:07.356Z,60.62
2018-06-01T17:51:33.280Z,59.52
2018-06-01T17:54:01.755Z,60.42
2018-06-01T17:56:27.955Z,61.02
2018-06-01T17:58:54.073Z,59.66
2018-06-01T18:01:22.816Z,59.55
2018-06-01T18:03:48.739Z,59.91
2018-06-01T18:06:14.680Z,58.28
2018-06-01T18:08:43.699Z,57.99
2018-06-01T18:11:10.931Z,58.01
2018-06-01T18:13:36.885Z,58.42
2018-06-01T18:16:02.821Z,58.89
2018-06-01T18:18:31.875Z,58.63
2018-06-01T18:20:57.829Z,59.43
2018-06-01T18:23:26.245Z,59.15
2018-06-01T18:25:52.204Z,59.12
2018-06-01T18:28:25.344Z,59.22
2018-06-01T18:30:52.169Z,59.59
2018-06-01T18:33:18.119Z,60.13
2018-06-01T18:35:44.068Z,59.12
2018-06-01T18:38:10.015Z,60.34
2018-06-01T18:40:35.952Z,59.70
2018-06-01T18:43:01.903Z,59.62
2018-06-01T18:45:27.881Z,60.31
2018-06-01T18:47:53.811Z,59.91
2018-06-01T18:50:22.831Z,60.41
2018-06-01T18:52:48.759Z,59.88
2018-06-01T18:55:17.963Z,60.72
2018-06-01T18:57:44.919Z,60.87
2018-06-01T19:00:11.884Z,61.41
2018-06-01T19:02:37.848Z,61.50
2018-06-01T19:05:03.873Z,62.23
2018-06-01T19:07:29.855Z,62.99
2018-06-01T19:09:55.785Z,63.65
2018-06-01T19:12:23.305Z,63.89
2018-06-01T19:14:51.220Z,63.96
2018-06-01T19:17:18.344Z,64.24
2018-06-01T19:19:44.382Z,65.12
2018-06-01T19:22:14.480Z,65.86
2018-06-01T19:24:40.547Z,66.62
2018-06-01T19:27:07.976Z,65.88
2018-06-01T19:29:33.922Z,66.16
2018-06-01T19:32:03.374Z,66.17
2018-06-01T19:34:29.337Z,66.56
2018-06-01T19:36:58.559Z,67.11
2018-06-01T19:39:25.485Z,67.83
2018-06-01T19:41:52.250Z,68.01
2018-06-01T19:44:18.200Z,68.10
2018-06-01T19:46:44.110Z,68.42
2018-06-01T19:49:10.070Z,68.55
2018-06-01T19:51:36.063Z,68.45
2018-06-01T19:54:03.354Z,68.76
2018-06-01T19:56:29.325Z,69.24
2018-06-01T19:58:58.482Z,69.57
2018-06-01T20:01:24.411Z,69.60
2018-06-01T20:03:53.495Z,69.92
2018-06-01T20:06:19.430Z,69.50
2018-06-01T20:08:53.808Z,69.66
2018-06-01T20:11:25.137Z,69.18
2018-06-01T20:13:51.093Z,69.66
2018-06-01T20:16:17.028Z,69.35
2018-06-01T20:18:42.949Z,69.18
2018-06-01T20:21:08.938Z,69.07
2018-06-01T20:23:34.856Z,69.11
2018-06-01T20:26:00.822Z,69.39
2018-06-01T20:28:27.081Z,69.65
2018-06-01T20:30:53.126Z,69.53
2018-06-01T20:33:19.076Z,69.79
2018-06-01T20:35:45.017Z,70.25
2018-06-01T20:38:10.927Z,70.53
2018-06-01T20:40:38.495Z,70.82
2018-06-01T20:43:04.435Z,70.60
2018-06-01T20:58:40.278Z,70.80
2018-06-01T21:01:06.272Z,70.70
2018-06-01T21:03:32.275Z,70.77
2018-06-01T21:05:58.199Z,70.73
2018-06-01T21:08:24.120Z,71.04
2018-06-01T21:10:53.039Z,71.25
2018-06-01T21:13:18.991Z,71.76
2018-06-01T21:15:44.962Z,72.30
2018-06-01T21:18:10.872Z,72.53
2018-06-01T21:20:36.775Z,72.48
2018-06-01T21:23:02.839Z,72.69
2018-06-01T21:25:28.815Z,72.63
2018-06-01T21:27:54.718Z,72.33
2018-06-01T21:30:20.698Z,72.88
2018-06-01T21:32:46.654Z,72.85
2018-06-01T21:35:12.700Z,72.30
2018-06-01T21:37:38.607Z,72.49
2018-06-01T21:40:04.565Z,72.24
2018-06-01T21:42:30.449Z,71.89
2018-06-01T21:44:56.418Z,72.12
2018-06-01T21:47:22.298Z,72.08
2018-06-01T21:49:48.208Z,72.38
2018-06-01T21:52:14.171Z,72.21
2018-06-01T21:54:40.113Z,72.37
2018-06-01T21:57:06.121Z,72.25
2018-06-01T21:59:32.099Z,72.60
2018-06-01T22:01:58.074Z,73.14
2018-06-01T22:04:23.988Z,73.22
2018-06-01T22:06:49.886Z,73.26
2018-06-01T22:09:15.796Z,73.27
2018-06-01T22:11:41.726Z,73.54
2018-06-01T22:14:07.655Z,73.83
2018-06-01T22:16:33.637Z,74.13
2018-06-01T22:18:59.515Z,74.54
2018-06-01T22:21:25.484Z,74.19
2018-06-01T22:23:51.448Z,74.41
2018-06-01T22:26:17.366Z,74.49
2018-06-01T22:28:43.400Z,74.45
2018-06-01T22:31:09.309Z,74.40
2018-06-01T22:33:35.240Z,74.44
2018-06-01T22:36:01.186Z,74.87
2018-06-01T22:38:27.079Z,75.52
2018-06-01T22:40:53.165Z,75.66
2018-06-01T22:43:19.056Z,75.89
2018-06-01T22:45:45.023Z,76.04
2018-06-01T22:48:10.998Z,76.09
2018-06-01T22:50:36.932Z,75.42
2018-06-01T22:53:02.844Z,75.18
2018-06-01T22:55:28.743Z,75.16
2018-06-01T22:57:54.632Z,74.91
2018-06-01T23:00:29.798Z,74.43
2018-06-01T23:02:55.736Z,74.00
2018-06-01T23:05:21.681Z,74.80
2018-06-01T23:07:47.590Z,74.92
2018-06-01T23:10:13.533Z,75.16
2018-06-01T23:12:39.504Z,74.81
2018-06-01T23:15:05.423Z,74.65
2018-06-01T23:17:31.382Z,74.75
2018-06-01T23:19:57.324Z,74.95
2018-06-01T23:22:23.224Z,75.69
2018-06-01T23:24:49.176Z,75.79
2018-06-01T23:27:15.065Z,75.81
2018-06-01T23:29:40.985Z,76.08
2018-06-01T23:32:06.943Z,76.11
2018-06-01T23:34:35.970Z,76.06
2018-06-01T23:37:01.906Z,75.82
2018-06-01T23:39:31.095Z,76.15
2018-06-01T23:41:57.107Z,75.82
2018-06-01T23:44:26.261Z,76.39
2018-06-01T23:46:52.181Z,76.48
2018-06-01T23:49:21.159Z,76.05
2018-06-01T23:51:47.097Z,76.52
2018-06-01T23:54:14.189Z,76.20
2018-06-01T23:56:40.100Z,76.38
2018-06-01T23:59:06.068Z,76.40
